createdAt,value
2022-11-24T00:00:22.154Z,8.70
2022-11-24T00:01:22.140Z,9.00
2022-11-24T00:02:22.268Z,8.90
2022-11-24T00:03:22.259Z,8.60
2022-11-24T00:04:22.104Z,9.20
2022-11-24T00:05:22.097Z,8.80
2022-11-24T00:06:22.082Z,9.30
2022-11-24T00:07:22.146Z,8.90
2022-11-24T00:08:22.058Z,9.00
2022-11-24T00:09:22.048Z,9.90
2022-11-24T00:10:22.019Z,9.20
2022-11-24T00:11:22.005Z,8.70
2022-11-24T00:12:21.991Z,9.70
2022-11-24T00:13:22.013Z,9.20
2022-11-24T00:14:21.973Z,10.30
2022-11-24T00:15:21.974Z,10.00
2022-11-24T00:16:21.978Z,10.60
2022-11-24T00:17:21.931Z,10.00
2022-11-24T00:18:21.938Z,9.60
2022-11-24T00:19:21.942Z,10.60
2022-11-24T00:20:21.912Z,10.90
2022-11-24T00:21:21.893Z,10.70
2022-11-24T00:22:21.886Z,10.40
2022-11-24T00:23:21.873Z,11.20
2022-11-24T00:24:21.871Z,10.80
2022-11-24T00:25:21.850Z,11.80
2022-11-24T00:26:21.839Z,10.30
2022-11-24T00:27:21.835Z,11.00
2022-11-24T00:28:21.804Z,11.60
2022-11-24T00:29:21.834Z,11.30
2022-11-24T00:30:21.796Z,10.10
2022-11-24T00:31:21.868Z,10.30
2022-11-24T00:32:21.770Z,11.00
2022-11-24T00:33:21.760Z,10.90
2022-11-24T00:34:21.796Z,11.00
2022-11-24T00:35:21.739Z,11.50
2022-11-24T00:36:21.755Z,10.40
2022-11-24T00:37:21.912Z,10.90
2022-11-24T00:38:21.712Z,11.40
2022-11-24T00:39:21.700Z,11.20
2022-11-24T00:40:21.688Z,11.70
2022-11-24T00:41:21.682Z,10.50
2022-11-24T00:42:21.667Z,11.10
2022-11-24T00:43:21.687Z,10.90
2022-11-24T00:44:21.639Z,10.60
2022-11-24T00:45:21.644Z,11.00
2022-11-24T00:46:21.681Z,10.20
2022-11-24T00:47:21.669Z,9.90
2022-11-24T00:48:21.599Z,11.60
2022-11-24T00:49:21.635Z,10.00
2022-11-24T00:50:21.594Z,11.40
2022-11-24T00:51:21.561Z,10.50
2022-11-24T00:52:21.562Z,9.50
2022-11-24T00:53:21.557Z,10.80
2022-11-24T00:54:21.552Z,10.70
2022-11-24T00:55:21.562Z,10.30
2022-11-24T00:56:21.530Z,10.50
2022-11-24T00:57:21.516Z,11.00
2022-11-24T00:58:21.488Z,10.20
2022-11-24T00:59:21.516Z,11.10
2022-11-24T01:00:21.483Z,10.90
2022-11-24T01:01:21.559Z,11.50
2022-11-24T01:02:21.480Z,10.50
2022-11-24T01:03:21.442Z,10.80
2022-11-24T01:04:21.446Z,10.00
2022-11-24T01:05:21.427Z,10.60
2022-11-24T01:06:21.406Z,11.50
2022-11-24T01:07:21.486Z,10.50
2022-11-24T01:08:21.386Z,10.30
2022-11-24T01:09:21.408Z,11.10
2022-11-24T01:10:21.381Z,12.60
2022-11-24T01:11:21.397Z,13.00
2022-11-24T01:12:21.350Z,11.70
2022-11-24T01:13:21.332Z,13.40
2022-11-24T01:14:21.322Z,13.20
2022-11-24T01:15:21.315Z,13.90
2022-11-24T01:16:21.397Z,15.10
2022-11-24T01:17:21.331Z,13.50
2022-11-24T01:18:21.278Z,13.90
2022-11-24T01:19:21.296Z,14.10
2022-11-24T01:20:21.256Z,14.70
2022-11-24T01:21:21.258Z,14.80
2022-11-24T01:22:21.263Z,16.60
2022-11-24T01:23:21.244Z,13.20
2022-11-24T01:24:21.206Z,14.60
2022-11-24T01:25:21.204Z,12.00
2022-11-24T01:26:21.195Z,13.60
2022-11-24T01:27:21.219Z,13.50
2022-11-24T01:28:21.174Z,13.20
2022-11-24T01:29:21.154Z,12.20
2022-11-24T01:30:21.171Z,11.60
2022-11-24T01:31:21.200Z,12.00
2022-11-24T01:32:21.119Z,12.50
2022-11-24T01:33:21.199Z,12.20
2022-11-24T01:34:21.107Z,12.70
2022-11-24T01:35:21.099Z,12.50
2022-11-24T01:36:21.088Z,12.70
2022-11-24T01:37:21.081Z,12.70
2022-11-24T01:38:21.081Z,12.10
2022-11-24T01:39:21.091Z,12.60
2022-11-24T01:40:21.043Z,12.20
2022-11-24T01:41:21.058Z,12.80
2022-11-24T01:42:21.018Z,13.10
2022-11-24T01:43:21.017Z,11.90
2022-11-24T01:44:21.018Z,11.40
2022-11-24T01:45:21.029Z,12.90
2022-11-24T01:46:21.052Z,11.90
2022-11-24T01:47:20.973Z,12.50
2022-11-24T01:48:24.464Z,11.70
2022-11-24T01:49:21.953Z,11.10
2022-11-24T01:50:20.965Z,12.10
2022-11-24T01:51:20.931Z,11.80
2022-11-24T01:52:20.912Z,10.80
2022-11-24T01:53:20.907Z,10.10
2022-11-24T01:54:20.898Z,11.80
2022-11-24T01:55:20.905Z,11.90
2022-11-24T01:56:20.870Z,11.60
2022-11-24T01:57:20.869Z,11.00
2022-11-24T01:58:20.849Z,10.20
2022-11-24T01:59:20.839Z,10.90
2022-11-24T02:00:20.855Z,10.60
2022-11-24T02:01:20.891Z,10.00
2022-11-24T02:02:20.858Z,10.70
2022-11-24T02:03:20.807Z,10.10
2022-11-24T02:04:20.780Z,10.00
2022-11-24T02:05:20.811Z,9.60
2022-11-24T02:06:20.763Z,10.10
2022-11-24T02:07:20.783Z,9.70
2022-11-24T02:08:20.738Z,10.30
2022-11-24T02:09:20.749Z,10.20
2022-11-24T02:10:20.752Z,10.40
2022-11-24T02:11:20.715Z,10.20
2022-11-24T02:12:20.711Z,9.80
2022-11-24T02:13:20.694Z,10.80
2022-11-24T02:14:20.681Z,10.40
2022-11-24T02:15:20.687Z,10.30
2022-11-24T02:16:20.694Z,10.40
2022-11-24T02:17:20.647Z,10.20
2022-11-24T02:18:20.628Z,10.10
2022-11-24T02:19:20.624Z,9.40
2022-11-24T02:20:20.632Z,10.20
2022-11-24T02:21:20.605Z,10.70
2022-11-24T02:22:20.587Z,10.30
2022-11-24T02:23:20.573Z,9.60
2022-11-24T02:24:20.576Z,9.90
2022-11-24T02:25:20.746Z,11.20
2022-11-24T02:26:20.547Z,9.80
2022-11-24T02:27:20.543Z,10.50
2022-11-24T02:28:20.531Z,10.30
2022-11-24T02:29:20.535Z,9.90
2022-11-24T02:30:20.517Z,10.40
2022-11-24T02:31:20.551Z,10.20
2022-11-24T02:32:20.486Z,10.10
2022-11-24T02:33:20.484Z,10.30
2022-11-24T02:34:20.463Z,10.40
2022-11-24T02:35:20.456Z,10.30
2022-11-24T02:36:20.458Z,10.00
2022-11-24T02:37:20.436Z,10.70
2022-11-24T02:38:20.423Z,10.10
2022-11-24T02:39:20.412Z,11.30
2022-11-24T02:40:20.400Z,9.60
2022-11-24T02:41:20.421Z,10.30
2022-11-24T02:42:20.374Z,10.10
2022-11-24T02:43:27.888Z,10.10
2022-11-24T02:44:20.541Z,9.80
2022-11-24T02:45:20.342Z,9.90
2022-11-24T02:46:20.400Z,10.50
2022-11-24T02:47:20.327Z,11.00
2022-11-24T02:48:20.302Z,10.00
2022-11-24T02:49:20.313Z,10.10
2022-11-24T02:50:20.485Z,10.40
2022-11-24T02:51:20.280Z,10.10
2022-11-24T02:52:20.275Z,9.10
2022-11-24T02:53:20.260Z,9.30
2022-11-24T02:54:20.252Z,8.90
2022-11-24T02:55:20.242Z,9.30
2022-11-24T02:56:20.254Z,9.10
2022-11-24T02:57:20.210Z,8.20
2022-11-24T02:58:20.202Z,8.30
2022-11-24T02:59:20.203Z,8.00
2022-11-24T03:00:20.178Z,7.60
2022-11-24T03:01:20.258Z,7.00
2022-11-24T03:02:20.201Z,7.40
2022-11-24T03:03:20.151Z,7.30
2022-11-24T03:04:20.139Z,7.10
2022-11-24T03:05:20.130Z,7.00
2022-11-24T03:06:20.138Z,7.10
2022-11-24T03:07:20.162Z,6.90
2022-11-24T03:08:20.098Z,7.60
2022-11-24T03:09:20.093Z,7.40
2022-11-24T03:10:20.073Z,6.90
2022-11-24T03:11:20.092Z,6.90
2022-11-24T03:12:20.049Z,7.20
2022-11-24T03:13:20.049Z,7.50
2022-11-24T03:14:20.030Z,7.70
2022-11-24T03:15:20.066Z,6.80
2022-11-24T03:16:20.058Z,7.30
2022-11-24T03:17:19.999Z,7.50
2022-11-24T03:18:19.995Z,7.70
2022-11-24T03:19:19.980Z,7.40
2022-11-24T03:20:19.967Z,6.80
2022-11-24T03:21:20.004Z,6.80
2022-11-24T03:22:19.940Z,7.10
2022-11-24T03:23:19.941Z,6.90
2022-11-24T03:24:19.936Z,6.90
2022-11-24T03:25:19.920Z,7.40
2022-11-24T03:26:19.908Z,6.60
2022-11-24T03:27:19.939Z,6.90
2022-11-24T03:28:19.889Z,7.10
2022-11-24T03:29:19.868Z,6.40
2022-11-24T03:30:19.864Z,6.50
2022-11-24T03:31:19.917Z,6.70
2022-11-24T03:32:19.861Z,6.60
2022-11-24T03:33:19.851Z,6.80
2022-11-24T03:34:19.816Z,6.80
2022-11-24T03:35:19.816Z,6.00
2022-11-24T03:36:19.821Z,5.80
2022-11-24T03:37:19.787Z,5.90
2022-11-24T03:38:19.786Z,6.20
2022-11-24T03:39:19.767Z,6.70
2022-11-24T03:40:19.777Z,6.00
2022-11-24T03:41:19.751Z,6.10
2022-11-24T03:42:19.746Z,6.30
2022-11-24T03:43:19.761Z,6.10
2022-11-24T03:44:19.711Z,6.50
2022-11-24T03:46:20.724Z,6.60
2022-11-24T03:47:19.685Z,5.80
2022-11-24T03:48:19.677Z,5.70
2022-11-24T03:49:19.686Z,5.80
2022-11-24T03:50:19.656Z,5.70
2022-11-24T03:51:19.636Z,5.30
2022-11-24T03:52:19.626Z,6.10
2022-11-24T03:53:19.631Z,6.30
2022-11-24T03:54:19.595Z,6.00
2022-11-24T03:55:19.621Z,6.10
2022-11-24T03:56:19.587Z,6.70
2022-11-24T03:57:19.570Z,6.20
2022-11-24T03:58:19.565Z,7.00
2022-11-24T03:59:19.560Z,7.50
2022-11-24T04:00:19.548Z,6.10
2022-11-24T04:01:19.588Z,6.80
2022-11-24T04:02:19.577Z,6.80
2022-11-24T04:03:19.517Z,7.30
2022-11-24T04:04:19.493Z,6.90
2022-11-24T04:05:19.484Z,6.30
2022-11-24T04:06:19.473Z,6.30
2022-11-24T04:07:19.557Z,6.30
2022-11-24T04:08:19.452Z,7.30
2022-11-24T04:09:19.438Z,6.30
2022-11-24T04:10:19.437Z,6.80
2022-11-24T04:11:19.430Z,7.60
2022-11-24T04:12:19.408Z,6.80
2022-11-24T04:13:19.423Z,6.90
2022-11-24T04:14:19.394Z,6.50
2022-11-24T04:15:19.379Z,6.90
2022-11-24T04:16:19.449Z,6.60
2022-11-24T04:17:19.399Z,6.70
2022-11-24T04:18:19.393Z,6.30
2022-11-24T04:19:19.389Z,6.10
2022-11-24T04:20:19.355Z,6.10
2022-11-24T04:21:19.339Z,6.20
2022-11-24T04:22:19.320Z,6.00
2022-11-24T04:23:19.338Z,6.40
2022-11-24T04:24:19.336Z,6.10
2022-11-24T04:25:19.290Z,6.70
2022-11-24T04:26:19.291Z,6.80
2022-11-24T04:27:19.279Z,7.30
2022-11-24T04:28:19.276Z,6.20
2022-11-24T04:29:19.255Z,6.40
2022-11-24T04:30:19.259Z,8.70
2022-11-24T04:31:19.286Z,7.60
2022-11-24T04:32:19.223Z,9.00
2022-11-24T04:33:19.210Z,8.00
2022-11-24T04:34:19.212Z,9.00
2022-11-24T04:35:19.220Z,8.90
2022-11-24T04:36:19.188Z,8.80
2022-11-24T04:37:19.169Z,8.40
2022-11-24T04:39:19.425Z,8.90
2022-11-24T04:39:26.409Z,8.60
2022-11-24T04:40:20.173Z,7.90
2022-11-24T04:41:19.121Z,8.50
2022-11-24T04:42:19.118Z,7.70
2022-11-24T04:43:19.119Z,9.70
2022-11-24T04:44:19.097Z,8.70
2022-11-24T04:45:19.082Z,8.40
2022-11-24T04:46:19.126Z,8.00
2022-11-24T04:47:19.077Z,7.90
2022-11-24T04:48:19.051Z,8.00
2022-11-24T04:49:19.036Z,7.40
2022-11-24T04:50:19.036Z,8.80
2022-11-24T04:51:19.021Z,8.10
2022-11-24T04:52:19.037Z,7.40
2022-11-24T04:53:19.007Z,8.70
2022-11-24T04:54:18.985Z,7.90
2022-11-24T04:55:18.975Z,7.90
2022-11-24T04:56:18.967Z,8.30
2022-11-24T04:57:18.988Z,7.50
2022-11-24T04:58:18.955Z,7.30
2022-11-24T04:59:18.933Z,7.70
2022-11-24T05:00:18.929Z,7.60
2022-11-24T05:01:18.938Z,7.60
2022-11-24T05:02:18.909Z,7.60
2022-11-24T05:03:18.915Z,6.70
2022-11-24T05:04:18.970Z,6.90
2022-11-24T05:05:18.904Z,8.90
2022-11-24T05:06:18.854Z,7.20
2022-11-24T05:07:19.564Z,6.90
2022-11-24T05:08:18.812Z,7.20
2022-11-24T05:09:18.817Z,9.10
2022-11-24T05:10:18.786Z,6.20
2022-11-24T05:11:18.805Z,6.30
2022-11-24T05:12:18.767Z,6.70
2022-11-24T05:13:18.754Z,6.30
2022-11-24T05:14:18.767Z,5.30
2022-11-24T05:15:18.733Z,5.50
2022-11-24T05:16:18.767Z,5.40
2022-11-24T05:17:18.710Z,8.30
2022-11-24T05:18:18.701Z,5.90
2022-11-24T05:19:18.687Z,5.50
2022-11-24T05:20:18.686Z,5.60
2022-11-24T05:21:18.696Z,6.60
2022-11-24T05:22:18.667Z,5.80
2022-11-24T05:23:18.642Z,5.90
2022-11-24T05:24:18.646Z,6.00
2022-11-24T05:25:18.630Z,6.10
2022-11-24T05:26:18.619Z,6.80
2022-11-24T05:27:18.605Z,5.60
2022-11-24T05:28:18.596Z,5.70
2022-11-24T05:29:18.597Z,5.90
2022-11-24T05:30:18.572Z,6.00
2022-11-24T05:31:18.706Z,8.30
2022-11-24T05:32:18.555Z,6.50
2022-11-24T05:33:18.551Z,7.40
2022-11-24T05:34:18.556Z,6.30
2022-11-24T05:35:18.538Z,7.20
2022-11-24T05:36:18.513Z,5.60
2022-11-24T05:37:18.492Z,5.90
2022-11-24T05:38:18.486Z,5.10
2022-11-24T05:39:18.567Z,4.70
2022-11-24T05:40:18.488Z,6.90
2022-11-24T05:41:18.484Z,6.10
2022-11-24T05:42:18.446Z,5.90
2022-11-24T05:43:18.438Z,5.80
2022-11-24T05:44:18.424Z,5.60
2022-11-24T05:45:18.489Z,4.50
2022-11-24T05:46:18.432Z,7.70
2022-11-24T05:47:18.385Z,5.90
2022-11-24T05:48:18.377Z,5.30
2022-11-24T05:49:18.367Z,6.90
2022-11-24T05:50:18.384Z,6.50
2022-11-24T05:51:18.347Z,6.50
2022-11-24T05:52:18.334Z,6.30
2022-11-24T05:53:18.329Z,8.50
2022-11-24T05:54:18.311Z,8.30
2022-11-24T05:55:18.349Z,7.70
2022-11-24T05:56:18.287Z,6.50
2022-11-24T05:57:18.275Z,8.10
2022-11-24T05:58:18.268Z,8.10
2022-11-24T05:59:18.258Z,7.40
2022-11-24T06:00:18.270Z,6.90
2022-11-24T06:01:18.641Z,7.20
2022-11-24T06:02:18.408Z,7.70
2022-11-24T06:03:18.429Z,7.90
2022-11-24T06:04:18.204Z,6.40
2022-11-24T06:05:18.184Z,7.30
2022-11-24T06:06:18.174Z,7.40
2022-11-24T06:07:18.220Z,8.60
2022-11-24T06:08:18.162Z,8.00
2022-11-24T06:09:18.317Z,6.90
2022-11-24T06:10:18.135Z,6.10
2022-11-24T06:11:18.128Z,8.30
2022-11-24T06:12:18.121Z,7.70
2022-11-24T06:13:18.176Z,6.40
2022-11-24T06:14:18.094Z,8.90
2022-11-24T06:15:18.253Z,8.50
2022-11-24T06:16:18.101Z,7.00
2022-11-24T06:17:18.065Z,6.60
2022-11-24T06:18:18.055Z,9.00
2022-11-24T06:19:18.043Z,9.90
2022-11-24T06:20:18.219Z,7.90
2022-11-24T06:21:18.022Z,9.60
2022-11-24T06:22:18.028Z,7.40
2022-11-24T06:23:18.005Z,9.80
2022-11-24T06:24:18.003Z,11.50
2022-11-24T06:25:17.970Z,7.70
2022-11-24T06:26:18.143Z,8.20
2022-11-24T06:27:17.960Z,9.40
2022-11-24T06:28:17.945Z,10.40
2022-11-24T06:29:17.941Z,8.20
2022-11-24T06:30:18.051Z,8.70
2022-11-24T06:31:18.957Z,10.20
2022-11-24T06:32:19.891Z,9.40
2022-11-24T06:33:17.936Z,8.70
2022-11-24T06:34:17.896Z,10.00
2022-11-24T06:35:17.881Z,8.90
2022-11-24T06:36:18.067Z,7.80
2022-11-24T06:37:17.858Z,10.00
2022-11-24T06:38:21.489Z,7.60
2022-11-24T06:39:18.929Z,7.50
2022-11-24T06:40:17.831Z,7.60
2022-11-24T06:41:17.807Z,7.80
2022-11-24T06:42:17.986Z,8.20
2022-11-24T06:43:17.786Z,7.60
2022-11-24T06:44:17.936Z,8.60
2022-11-24T06:45:17.761Z,7.10
2022-11-24T06:46:17.850Z,7.10
2022-11-24T06:47:17.912Z,8.60
2022-11-24T06:48:17.737Z,10.30
2022-11-24T06:49:17.719Z,7.80
2022-11-24T06:50:17.714Z,8.20
2022-11-24T06:51:17.696Z,9.10
2022-11-24T06:52:17.724Z,8.10
2022-11-24T06:53:17.843Z,8.30
2022-11-24T06:54:17.672Z,7.70
2022-11-24T06:55:17.662Z,8.70
2022-11-24T06:56:17.646Z,6.60
2022-11-24T06:57:17.631Z,9.40
2022-11-24T06:58:17.620Z,7.40
2022-11-24T06:59:17.781Z,7.90
2022-11-24T07:00:17.602Z,7.40
2022-11-24T07:01:17.745Z,7.30
2022-11-24T07:02:17.579Z,6.70
2022-11-24T07:03:17.612Z,8.00
2022-11-24T07:04:17.555Z,8.20
2022-11-24T07:05:17.726Z,7.40
2022-11-24T07:06:17.540Z,7.90
2022-11-24T07:07:17.567Z,7.70
2022-11-24T07:08:18.081Z,7.90
2022-11-24T07:09:17.509Z,8.60
2022-11-24T07:10:17.489Z,8.90
2022-11-24T07:11:17.669Z,8.20
2022-11-24T07:12:17.472Z,9.60
2022-11-24T07:13:17.460Z,8.10
2022-11-24T07:14:17.457Z,12.00
2022-11-24T07:15:17.446Z,10.20
2022-11-24T07:16:17.690Z,11.10
2022-11-24T07:17:17.424Z,8.70
2022-11-24T07:18:17.425Z,10.60
2022-11-24T07:19:23.139Z,10.10
2022-11-24T07:20:18.381Z,9.90
2022-11-24T07:21:17.383Z,10.50
2022-11-24T07:22:17.542Z,10.70
2022-11-24T07:23:17.369Z,13.30
2022-11-24T07:24:17.344Z,12.90
2022-11-24T07:25:17.335Z,11.30
2022-11-24T07:26:17.322Z,10.70
2022-11-24T07:27:17.307Z,8.90
2022-11-24T07:28:17.477Z,8.50
2022-11-24T07:29:17.287Z,11.90
2022-11-24T07:30:17.284Z,10.80
2022-11-24T07:31:17.351Z,9.50
2022-11-24T07:32:17.314Z,9.40
2022-11-24T07:33:17.252Z,9.70
2022-11-24T07:34:17.492Z,12.30
2022-11-24T07:35:17.225Z,12.20
2022-11-24T07:36:17.223Z,10.80
2022-11-24T07:37:17.206Z,12.30
2022-11-24T07:38:17.191Z,12.70
2022-11-24T07:39:17.188Z,10.30
2022-11-24T07:40:17.356Z,13.00
2022-11-24T07:41:17.166Z,15.40
2022-11-24T07:42:17.152Z,11.70
2022-11-24T07:43:20.160Z,12.90
2022-11-24T07:44:17.130Z,11.90
2022-11-24T07:45:17.120Z,12.80
2022-11-24T07:46:17.349Z,14.20
2022-11-24T07:47:17.094Z,12.40
2022-11-24T07:48:17.085Z,13.00
2022-11-24T07:49:17.078Z,17.20
2022-11-24T07:50:17.067Z,19.50
2022-11-24T07:51:17.234Z,19.90
2022-11-24T07:52:17.044Z,20.80
2022-11-24T07:53:17.035Z,15.20
2022-11-24T07:54:17.015Z,16.70
2022-11-24T07:55:17.022Z,16.30
2022-11-24T07:56:17.009Z,13.40
2022-11-24T07:57:17.165Z,12.30
2022-11-24T07:58:16.974Z,12.40
2022-11-24T07:59:16.977Z,13.30
2022-11-24T08:00:16.964Z,12.50
2022-11-24T08:01:17.042Z,12.50
2022-11-24T08:02:17.965Z,14.70
2022-11-24T08:03:16.956Z,12.00
2022-11-24T08:04:17.044Z,15.90
2022-11-24T08:05:16.910Z,13.50
2022-11-24T08:06:27.333Z,13.80
2022-11-24T08:07:17.898Z,13.00
2022-11-24T08:08:17.088Z,14.60
2022-11-24T08:09:16.887Z,12.50
2022-11-24T08:10:16.853Z,15.00
2022-11-24T08:11:16.849Z,12.50
2022-11-24T08:12:16.858Z,13.30
2022-11-24T08:13:17.063Z,13.20
2022-11-24T08:14:16.809Z,14.70
2022-11-24T08:15:16.802Z,13.00
2022-11-24T08:16:16.865Z,12.80
2022-11-24T08:17:16.782Z,12.40
2022-11-24T08:18:16.981Z,13.60
2022-11-24T08:19:16.788Z,13.90
2022-11-24T08:20:16.751Z,11.60
2022-11-24T08:21:16.752Z,13.40
2022-11-24T08:22:16.727Z,12.90
2022-11-24T08:23:16.712Z,13.40
2022-11-24T08:24:16.878Z,13.40
2022-11-24T08:25:16.696Z,11.40
2022-11-24T08:26:16.696Z,11.40
2022-11-24T08:27:16.672Z,9.90
2022-11-24T08:28:16.663Z,9.80
2022-11-24T08:29:16.843Z,9.40
2022-11-24T08:30:16.639Z,9.80
2022-11-24T08:31:16.647Z,10.10
2022-11-24T08:32:21.895Z,8.30
2022-11-24T08:33:17.623Z,8.60
2022-11-24T08:34:16.601Z,8.90
2022-11-24T08:35:16.818Z,8.40
2022-11-24T08:36:16.598Z,9.90
2022-11-24T08:37:16.571Z,7.60
2022-11-24T08:38:16.722Z,10.70
2022-11-24T08:39:16.542Z,10.20
2022-11-24T08:40:16.715Z,11.80
2022-11-24T08:41:16.544Z,9.80
2022-11-24T08:42:16.509Z,8.90
2022-11-24T08:43:16.501Z,9.70
2022-11-24T08:44:16.490Z,12.00
2022-11-24T08:45:20.747Z,10.70
2022-11-24T08:46:17.722Z,10.50
2022-11-24T08:47:16.454Z,10.70
2022-11-24T08:48:16.457Z,12.80
2022-11-24T08:49:16.436Z,11.40
2022-11-24T08:50:16.420Z,10.10
2022-11-24T08:51:16.758Z,10.70
2022-11-24T08:52:16.413Z,10.50
2022-11-24T08:53:16.402Z,11.20
2022-11-24T08:54:16.397Z,11.50
2022-11-24T08:55:16.372Z,9.80
2022-11-24T08:56:16.362Z,13.30
2022-11-24T08:57:21.595Z,10.10
2022-11-24T08:58:17.344Z,8.80
2022-11-24T08:59:16.414Z,9.10
2022-11-24T09:00:16.321Z,8.10
2022-11-24T09:01:16.367Z,8.50
2022-11-24T09:02:16.456Z,8.70
2022-11-24T09:03:16.281Z,8.10
2022-11-24T09:04:16.303Z,9.00
2022-11-24T09:05:49.618Z,6.60
2022-11-24T09:06:17.267Z,8.80
2022-11-24T09:07:17.407Z,7.90
2022-11-24T09:08:16.235Z,9.00
2022-11-24T09:09:16.219Z,8.10
2022-11-24T09:10:16.209Z,8.30
2022-11-24T09:11:16.197Z,8.00
2022-11-24T09:12:16.180Z,8.70
2022-11-24T09:13:16.371Z,8.00
2022-11-24T09:14:16.162Z,7.20
2022-11-24T09:15:16.189Z,7.60
2022-11-24T09:16:16.158Z,5.70
2022-11-24T09:17:16.137Z,6.00
2022-11-24T09:18:16.125Z,6.40
2022-11-24T09:19:16.349Z,6.90
2022-11-24T09:20:16.099Z,7.90
2022-11-24T09:21:16.105Z,6.50
2022-11-24T09:22:16.082Z,6.30
2022-11-24T09:23:16.069Z,7.20
2022-11-24T09:24:16.333Z,7.50
2022-11-24T09:25:16.042Z,7.60
2022-11-24T09:26:16.039Z,7.30
2022-11-24T09:27:16.017Z,7.60
2022-11-24T09:28:16.016Z,8.70
2022-11-24T09:29:16.384Z,9.10
2022-11-24T09:30:16.007Z,6.60
2022-11-24T09:31:16.060Z,7.80
2022-11-24T09:32:15.970Z,7.90
2022-11-24T09:33:15.965Z,8.00
2022-11-24T09:34:15.972Z,9.80
2022-11-24T09:35:16.128Z,8.30
2022-11-24T09:36:15.932Z,6.80
2022-11-24T09:37:15.916Z,10.70
2022-11-24T09:38:15.902Z,8.60
2022-11-24T09:39:15.902Z,8.30
2022-11-24T09:40:15.887Z,9.50
2022-11-24T09:41:16.102Z,6.30
2022-11-24T09:42:15.872Z,8.90
2022-11-24T09:43:15.852Z,6.80
2022-11-24T09:44:15.852Z,10.70
2022-11-24T09:45:15.825Z,11.70
2022-11-24T09:46:16.046Z,12.60
2022-11-24T09:47:15.814Z,16.20
2022-11-24T09:48:15.801Z,15.50
2022-11-24T09:49:15.797Z,15.60
2022-11-24T09:50:15.807Z,16.80
2022-11-24T09:51:15.795Z,16.80
2022-11-24T09:52:15.765Z,14.00
2022-11-24T09:53:15.755Z,12.90
2022-11-24T09:54:15.734Z,11.80
2022-11-24T09:55:15.729Z,10.70
2022-11-24T09:56:15.710Z,18.30
2022-11-24T09:57:15.870Z,21.40
2022-11-24T09:58:15.691Z,15.20
2022-11-24T09:59:15.683Z,17.10
2022-11-24T10:00:15.673Z,12.40
2022-11-24T10:01:15.912Z,13.50
2022-11-24T10:02:15.647Z,9.10
2022-11-24T10:03:15.636Z,10.80
2022-11-24T10:04:15.936Z,8.20
2022-11-24T10:05:15.618Z,8.80
2022-11-24T10:06:15.608Z,5.90
2022-11-24T10:07:15.633Z,7.30
2022-11-24T10:08:15.613Z,6.20
2022-11-24T10:09:15.576Z,5.30
2022-11-24T10:10:19.779Z,6.50
2022-11-24T10:11:16.547Z,8.30
2022-11-24T10:12:15.537Z,7.00
2022-11-24T10:13:15.536Z,6.80
2022-11-24T10:14:15.522Z,6.10
2022-11-24T10:15:15.524Z,5.50
2022-11-24T10:16:15.817Z,6.10
2022-11-24T10:17:15.486Z,8.00
2022-11-24T10:18:17.215Z,6.90
2022-11-24T10:19:15.466Z,6.40
2022-11-24T10:20:15.460Z,5.10
2022-11-24T10:21:15.455Z,5.30
2022-11-24T10:22:15.722Z,4.60
2022-11-24T10:23:15.426Z,7.70
2022-11-24T10:24:15.416Z,10.00
2022-11-24T10:25:15.422Z,14.40
2022-11-24T10:26:15.389Z,13.10
2022-11-24T10:27:15.553Z,10.70
2022-11-24T10:28:15.414Z,11.40
2022-11-24T10:29:15.394Z,10.50
2022-11-24T10:30:15.374Z,10.60
2022-11-24T10:31:15.379Z,10.20
2022-11-24T10:32:15.349Z,7.60
2022-11-24T10:33:15.328Z,7.60
2022-11-24T10:34:15.465Z,9.00
2022-11-24T10:35:15.306Z,7.30
2022-11-24T10:36:15.289Z,7.70
2022-11-24T10:37:15.272Z,9.00
2022-11-24T10:38:15.262Z,10.10
2022-11-24T10:39:15.413Z,11.70
2022-11-24T10:40:40.611Z,11.40
2022-11-24T10:41:16.230Z,9.80
2022-11-24T10:42:15.239Z,11.00
2022-11-24T10:43:15.213Z,11.00
2022-11-24T10:44:15.208Z,8.80
2022-11-24T10:45:15.355Z,9.50
2022-11-24T10:46:15.382Z,10.70
2022-11-24T10:47:15.166Z,8.30
2022-11-24T10:48:15.145Z,7.90
2022-11-24T10:49:15.136Z,7.30
2022-11-24T10:50:15.128Z,6.60
2022-11-24T10:51:15.123Z,6.90
2022-11-24T10:52:15.324Z,7.00
2022-11-24T10:53:15.106Z,8.20
2022-11-24T10:54:15.097Z,8.30
2022-11-24T10:55:15.075Z,8.20
2022-11-24T10:56:15.111Z,8.40
2022-11-24T10:57:15.055Z,11.20
2022-11-24T10:58:15.241Z,10.10
2022-11-24T10:59:15.037Z,8.50
2022-11-24T11:00:15.169Z,9.60
2022-11-24T11:01:15.113Z,10.30
2022-11-24T11:02:15.047Z,9.20
2022-11-24T11:03:15.003Z,9.70
2022-11-24T11:04:15.169Z,8.20
2022-11-24T11:05:15.159Z,9.20
2022-11-24T11:06:14.962Z,7.20
2022-11-24T11:07:14.988Z,9.10
2022-11-24T11:08:15.130Z,9.10
2022-11-24T11:09:14.932Z,11.00
2022-11-24T11:10:15.113Z,13.60
2022-11-24T11:11:14.906Z,10.20
2022-11-24T11:12:42.793Z,13.50
2022-11-24T11:13:15.888Z,10.00
2022-11-24T11:14:14.875Z,7.50
2022-11-24T11:15:14.866Z,7.10
2022-11-24T11:16:15.264Z,8.80
2022-11-24T11:17:14.845Z,11.40
2022-11-24T11:18:14.832Z,7.30
2022-11-24T11:19:53.215Z,5.60
2022-11-24T11:20:15.860Z,11.40
2022-11-24T11:21:14.808Z,9.60
2022-11-24T11:22:14.967Z,9.60
2022-11-24T11:23:14.985Z,7.90
2022-11-24T11:24:14.775Z,10.50
2022-11-24T11:25:14.771Z,6.60
2022-11-24T11:26:14.750Z,9.10
2022-11-24T11:27:14.925Z,9.50
2022-11-24T11:28:17.913Z,7.80
2022-11-24T11:31:19.097Z,7.70
2022-11-24T11:34:23.193Z,10.30
2022-11-24T11:35:15.655Z,7.80
2022-11-24T11:36:14.640Z,10.10
2022-11-24T11:37:14.641Z,7.80
2022-11-24T11:38:14.827Z,10.20
2022-11-24T11:39:14.595Z,10.70
2022-11-24T11:40:14.615Z,13.70
2022-11-24T11:41:14.589Z,14.10
2022-11-24T11:42:31.317Z,12.10
2022-11-24T11:43:15.744Z,11.50
2022-11-24T11:44:14.544Z,9.60
2022-11-24T11:45:14.575Z,8.20
2022-11-24T11:46:14.715Z,9.40
2022-11-24T11:47:14.758Z,7.20
2022-11-24T11:48:14.512Z,8.10
2022-11-24T11:49:14.488Z,8.70
2022-11-24T11:50:14.496Z,11.70
2022-11-24T11:51:23.221Z,8.00
2022-11-24T11:52:15.469Z,10.00
2022-11-24T11:53:14.458Z,9.20
2022-11-24T11:54:14.443Z,8.80
2022-11-24T11:55:14.625Z,9.20
2022-11-24T11:56:14.414Z,10.50
2022-11-24T11:57:14.602Z,11.20
2022-11-24T11:58:14.398Z,11.00
2022-11-24T11:59:14.391Z,12.30
2022-11-24T12:00:14.383Z,11.30
2022-11-24T12:01:14.378Z,13.40
2022-11-24T12:02:14.581Z,12.80
2022-11-24T12:03:14.600Z,9.00
2022-11-24T12:04:14.435Z,10.10
2022-11-24T12:05:14.333Z,9.40
2022-11-24T12:06:14.525Z,9.70
2022-11-24T12:07:14.342Z,8.90
2022-11-24T12:08:20.483Z,10.20
2022-11-24T12:09:22.459Z,10.40
2022-11-24T12:10:15.451Z,9.50
2022-11-24T12:11:14.294Z,9.30
2022-11-24T12:12:14.245Z,12.40
2022-11-24T12:13:14.232Z,10.90
2022-11-24T12:14:14.227Z,9.10
2022-11-24T12:15:14.225Z,10.90
2022-11-24T12:16:14.453Z,12.30
2022-11-24T12:17:14.194Z,10.20
2022-11-24T12:18:40.216Z,7.70
2022-11-24T12:19:15.351Z,10.30
2022-11-24T12:20:14.323Z,11.70
2022-11-24T12:21:14.148Z,11.50
2022-11-24T12:22:14.313Z,10.40
2022-11-24T12:23:14.122Z,12.70
2022-11-24T12:24:14.159Z,9.70
2022-11-24T12:25:14.111Z,12.80
2022-11-24T12:26:14.282Z,10.60
2022-11-24T12:27:19.367Z,8.20
2022-11-24T12:28:15.083Z,11.90
2022-11-24T12:29:14.071Z,10.10
2022-11-24T12:30:14.230Z,11.60
2022-11-24T12:31:14.123Z,12.90
2022-11-24T12:32:14.032Z,8.60
2022-11-24T12:33:14.207Z,9.90
2022-11-24T12:34:14.022Z,14.90
2022-11-24T12:35:14.170Z,14.20
2022-11-24T12:36:14.036Z,13.00
2022-11-24T12:37:13.970Z,11.30
2022-11-24T12:38:13.960Z,11.10
2022-11-24T12:39:14.637Z,12.50
2022-11-24T12:40:13.947Z,10.90
2022-11-24T12:42:15.121Z,9.20
2022-11-24T12:43:13.918Z,11.60
2022-11-24T12:44:13.903Z,9.50
2022-11-24T12:45:14.079Z,12.20
2022-11-24T12:46:17.482Z,14.20
2022-11-24T12:47:13.975Z,13.90
2022-11-24T12:48:13.874Z,11.40
2022-11-24T12:49:13.839Z,12.30
2022-11-24T12:50:13.840Z,13.00
2022-11-24T12:51:13.824Z,12.60
2022-11-24T12:52:13.977Z,10.50
2022-11-24T12:53:13.813Z,10.50
2022-11-24T12:54:13.804Z,14.60
2022-11-24T12:55:13.785Z,12.10
2022-11-24T12:56:13.774Z,11.60
2022-11-24T12:57:13.920Z,9.30
2022-11-24T12:58:13.752Z,11.10
2022-11-24T12:59:13.926Z,13.40
2022-11-24T13:00:13.739Z,12.90
2022-11-24T13:01:16.700Z,11.20
2022-11-24T13:02:13.988Z,12.70
2022-11-24T13:03:14.073Z,13.20
2022-11-24T13:04:13.680Z,16.80
2022-11-24T13:05:13.671Z,10.40
2022-11-24T13:06:13.663Z,11.40
2022-11-24T13:07:13.693Z,11.00
2022-11-24T13:08:13.821Z,9.60
2022-11-24T13:09:13.647Z,13.80
2022-11-24T13:10:13.639Z,12.20
2022-11-24T13:11:13.791Z,11.30
2022-11-24T13:12:13.602Z,11.40